Time;durP1;ratioP1;P1;durP2;ratioP2;P2;SDS_P1;SDS_P2;PMS_P1;PMS_P2;Temp;Humidity;BMP_temperature;BMP_pressure;BME280_temperature;BME280_humidity;BME280_pressure;Samples;Min_cycle;Max_cycle;Signal;HPM_P1;HPM_P2
2024/01/09 00:02:07;;;;;;;6.28;4.57;;;;;;;-4.01;100.00;103371.91;10411608;28;20446;-67
2024/01/09 00:07:07;;;;;;;4.72;4.32;;;;;;;-4.08;100.00;103376.50;10428024;28;20164;-71
2024/01/09 00:12:08;;;;;;;4.80;4.47;;;;;;;-4.11;100.00;103358.03;10432257;28;20041;-67
2024/01/09 00:17:08;;;;;;;5.00;4.63;;;;;;;-4.11;100.00;103355.41;10419763;28;20057;-67
2024/01/09 00:22:09;;;;;;;5.28;4.50;;;;;;;-4.15;100.00;103345.78;10419314;28;20100;-67
2024/01/09 00:27:09;;;;;;;4.32;4.03;;;;;;;-4.16;100.00;103351.13;10418860;28;20037;-67
2024/01/09 00:32:10;;;;;;;5.18;4.47;;;;;;;-4.19;100.00;103348.56;10416802;28;20053;-67
2024/01/09 00:37:11;;;;;;;4.82;4.35;;;;;;;-4.18;100.00;103352.94;10421836;28;20424;-67
2024/01/09 00:42:11;;;;;;;8.65;5.38;;;;;;;-4.25;100.00;103341.66;10444847;28;20044;-67
2024/01/09 00:47:12;;;;;;;5.10;4.65;;;;;;;-4.31;100.00;103339.19;10424251;28;20060;-67
2024/01/09 00:52:12;;;;;;;7.90;5.05;;;;;;;-4.30;100.00;103346.22;10417955;28;20116;-67
2024/01/09 00:57:13;;;;;;;5.20;4.78;;;;;;;-4.34;100.00;103349.84;10417209;28;20476;-67
2024/01/09 01:02:13;;;;;;;5.63;5.13;;;;;;;-4.39;100.00;103336.75;10423439;28;20037;-67
2024/01/09 01:07:14;;;;;;;9.07;5.50;;;;;;;-4.36;100.00;103360.47;10417936;28;20029;-67
2024/01/09 01:12:14;;;;;;;6.80;4.63;;;;;;;-4.42;100.00;103342.13;10417287;28;20108;-67
2024/01/09 01:17:14;;;;;;;6.15;4.88;;;;;;;-4.38;100.00;103356.13;10417050;28;20033;-67
2024/01/09 01:22:15;;;;;;;11.02;8.88;;;;;;;-4.46;100.00;103366.91;10415859;28;20401;-67
2024/01/09 01:27:15;;;;;;;9.70;5.35;;;;;;;-4.42;100.00;103365.06;10416741;28;20084;-67
2024/01/09 01:32:16;;;;;;;6.88;5.80;;;;;;;-4.45;100.00;103371.28;10418295;28;20046;-67
2024/01/09 01:37:16;;;;;;;7.10;5.57;;;;;;;-4.53;100.00;103353.00;10417167;28;20041;-67
2024/01/09 01:42:18;;;;;;;8.57;5.35;;;;;;;-4.55;100.00;103353.94;10415644;28;20041;-67
2024/01/09 01:47:18;;;;;;;6.22;5.55;;;;;;;-4.59;100.00;103347.00;10416257;28;20029;-67
2024/01/09 01:52:18;;;;;;;10.35;5.78;;;;;;;-4.62;100.00;103355.00;10431369;28;20075;-67
2024/01/09 01:57:19;;;;;;;6.07;4.30;;;;;;;-4.64;100.00;103362.09;10416291;28;20086;-67
2024/01/09 02:02:19;;;;;;;5.88;4.43;;;;;;;-4.65;100.00;103349.78;10414316;28;20123;-67
2024/01/09 02:07:20;;;;;;;5.00;4.13;;;;;;;-4.74;100.00;103353.53;10413934;28;20033;-67
2024/01/09 02:12:20;;;;;;;4.47;4.18;;;;;;;-4.65;100.00;103352.44;10414348;28;20022;-67
2024/01/09 02:17:20;;;;;;;4.32;4.00;;;;;;;-4.72;100.00;103357.88;10415409;28;20049;-67
2024/01/09 02:22:21;;;;;;;5.22;4.70;;;;;;;-4.76;100.00;103355.34;10425805;28;20369;-67
2024/01/09 02:27:47;;;;;;;4.78;4.32;;;;;;;-4.81;100.00;103344.03;10420014;28;20457;-67
2024/01/09 02:32:47;;;;;;;6.50;4.17;;;;;;;-4.81;100.00;103359.88;10429095;28;20051;-67
2024/01/09 02:37:47;;;;;;;6.20;4.93;;;;;;;-4.84;100.00;103342.31;10429915;28;20042;-67
2024/01/09 02:42:48;;;;;;;5.30;4.80;;;;;;;-4.87;100.00;103338.88;10396375;28;20033;-67
2024/01/09 02:47:48;;;;;;;6.55;5.28;;;;;;;-4.88;100.00;103332.72;10413580;28;20040;-67
2024/01/09 02:52:49;;;;;;;4.90;4.45;;;;;;;-4.90;100.00;103326.59;10413545;28;20033;-67
2024/01/09 02:57:49;;;;;;;7.32;4.60;;;;;;;-4.87;100.00;103336.25;10413558;28;20373;-67
2024/01/09 03:02:49;;;;;;;4.95;4.25;;;;;;;-4.94;100.00;103331.09;10428991;28;20053;-67
2024/01/09 03:07:50;;;;;;;6.38;4.85;;;;;;;-4.92;100.00;103336.34;10413002;28;20033;-67
2024/01/09 03:12:50;;;;;;;4.40;4.07;;;;;;;-4.93;100.00;103316.97;10420855;28;20069;-67
2024/01/09 03:17:51;;;;;;;6.28;5.65;;;;;;;-4.94;100.00;103331.09;10413385;28;20044;-67
2024/01/09 03:22:52;;;;;;;5.43;4.53;;;;;;;-4.97;100.00;103323.25;10412973;28;20083;-67
2024/01/09 03:27:55;;;;;;;6.20;4.72;;;;;;;-4.99;100.00;103311.84;10412360;28;20041;-68
2024/01/09 03:32:55;;;;;;;4.47;4.07;;;;;;;-5.03;100.00;103310.19;10412722;28;20465;-67
2024/01/09 03:37:56;;;;;;;5.40;4.20;;;;;;;-4.98;100.00;103326.81;10412267;28;20037;-68
2024/01/09 03:42:56;;;;;;;3.70;3.40;;;;;;;-5.04;100.00;103308.47;10412143;28;20454;-67
2024/01/09 03:47:56;;;;;;;8.80;5.75;;;;;;;-5.02;100.00;103311.91;10411253;28;20369;-67
2024/01/09 03:52:57;;;;;;;5.35;4.78;;;;;;;-5.03;100.00;103312.81;10412590;28;20113;-68
2024/01/09 03:57:57;;;;;;;7.60;4.10;;;;;;;-5.09;100.00;103293.63;10411993;28;20029;-67
2024/01/09 04:02:58;;;;;;;7.72;5.25;;;;;;;-4.99;100.00;103300.41;10427779;28;20041;-68
2024/01/09 04:07:58;;;;;;;5.00;4.57;;;;;;;-5.11;100.00;103290.13;10410144;28;20111;-68
2024/01/09 04:12:59;;;;;;;6.20;5.43;;;;;;;-5.05;100.00;103304.06;10410162;28;20026;-68
2024/01/09 04:17:59;;;;;;;8.00;5.35;;;;;;;-5.06;100.00;103304.13;10393976;28;20463;-68
2024/01/09 04:22:59;;;;;;;4.90;4.45;;;;;;;-5.12;100.00;103307.75;10412373;28;20036;-68
2024/01/09 04:28:00;;;;;;;5.38;4.45;;;;;;;-5.12;100.00;103304.25;10413170;28;20040;-68
2024/01/09 04:33:00;;;;;;;6.22;5.60;;;;;;;-5.13;100.00;103306.03;10412298;28;20049;-68
2024/01/09 04:38:01;;;;;;;8.93;4.15;;;;;;;-5.10;100.00;103292.75;10419346;28;20077;-68
2024/01/09 04:43:01;;;;;;;5.85;5.40;;;;;;;-5.17;100.00;103294.69;10411597;28;20033;-68
2024/01/09 04:48:02;;;;;;;5.55;4.35;;;;;;;-5.18;100.00;103313.19;10410280;28;20030;-68
2024/01/09 04:53:02;;;;;;;6.30;5.00;;;;;;;-5.20;100.00;103307.06;10411601;28;20055;-68
2024/01/09 04:58:03;;;;;;;7.72;5.60;;;;;;;-5.30;100.00;103310.84;10414088;28;20117;-68
2024/01/09 05:03:03;;;;;;;6.70;6.10;;;;;;;-5.27;100.00;103308.13;10417284;28;20033;-68
2024/01/09 05:08:04;;;;;;;6.93;4.47;;;;;;;-5.31;100.00;103309.97;10417041;28;20087;-68
2024/01/09 05:13:04;;;;;;;5.00;4.15;;;;;;;-5.34;100.00;103310.03;10417886;28;20112;-69
2024/01/09 05:18:05;;;;;;;6.35;5.72;;;;;;;-5.35;100.00;103302.16;10417514;28;20400;-68
2024/01/09 05:23:05;;;;;;;6.93;5.28;;;;;;;-5.37;100.00;103303.06;10417797;28;20105;-69
2024/01/09 05:28:06;;;;;;;5.72;4.60;;;;;;;-5.39;100.00;103310.16;10422893;28;20037;-69
2024/01/09 05:33:06;;;;;;;7.85;4.95;;;;;;;-5.38;100.00;103311.03;10416530;28;20081;-68
2024/01/09 05:38:06;;;;;;;5.72;4.38;;;;;;;-5.41;100.00;103313.72;10417613;28;20088;-69
2024/01/09 05:43:07;;;;;;;5.60;5.07;;;;;;;-5.46;100.00;103311.19;10364036;28;20390;-69
2024/01/09 05:48:07;;;;;;;5.28;4.80;;;;;;;-5.48;100.00;103310.38;10415219;28;20025;-69
2024/01/09 05:53:08;;;;;;;8.18;5.55;;;;;;;-5.52;100.00;103311.34;10415862;28;20361;-69
2024/01/09 05:58:08;;;;;;;5.32;4.80;;;;;;;-5.47;100.00;103312.09;10397925;28;20120;-70
2024/01/09 06:03:09;;;;;;;5.68;4.57;;;;;;;-5.55;100.00;103299.97;10415991;28;20049;-70
2024/01/09 06:08:09;;;;;;;6.35;4.68;;;;;;;-5.52;100.00;103319.25;10416153;28;20104;-69
2024/01/09 06:13:09;;;;;;;5.07;4.22;;;;;;;-5.50;100.00;103327.13;10413463;28;20428;-68
2024/01/09 06:18:10;;;;;;;6.25;5.20;;;;;;;-5.55;100.00;103334.28;10430123;28;20091;-69
2024/01/09 06:23:10;;;;;;;5.53;4.97;;;;;;;-5.60;100.00;103323.84;10430986;28;20061;-68
2024/01/09 06:28:11;;;;;;;5.05;4.38;;;;;;;-5.59;100.00;103330.84;10414913;28;20314;-68
2024/01/09 06:33:11;;;;;;;5.63;3.65;;;;;;;-5.64;100.00;103344.16;10413466;28;20103;-69
2024/01/09 06:38:11;;;;;;;7.22;5.38;;;;;;;-5.63;100.00;103340.59;10432545;28;20116;-69
2024/01/09 06:43:12;;;;;;;5.35;4.85;;;;;;;-5.62;100.00;103344.97;10417971;28;20032;-69
2024/01/09 06:48:12;;;;;;;5.00;4.60;;;;;;;-5.62;100.00;103349.38;10430557;28;20434;-69
2024/01/09 06:53:13;;;;;;;5.30;4.75;;;;;;;-5.61;100.00;103348.50;10418703;28;20029;-70
2024/01/09 06:58:16;;;;;;;5.10;4.55;;;;;;;-5.65;100.00;103341.53;10414294;28;20041;-69
2024/01/09 07:03:16;;;;;;;5.47;4.95;;;;;;;-5.72;100.00;103332.00;10440344;28;20295;-69
2024/01/09 07:08:16;;;;;;;5.28;4.75;;;;;;;-5.63;100.00;103355.56;10428541;28;20033;-69
2024/01/09 07:13:17;;;;;;;7.60;5.32;;;;;;;-5.66;100.00;103350.34;10416699;28;20449;-69
2024/01/09 07:18:17;;;;;;;5.28;4.53;;;;;;;-5.68;100.00;103358.31;10414163;28;20052;-69
2024/01/09 07:23:18;;;;;;;5.95;5.35;;;;;;;-5.66;100.00;103361.78;10412314;28;20091;-70
2024/01/09 07:28:18;;;;;;;5.55;4.68;;;;;;;-5.71;100.00;103363.66;10413995;28;20033;-70
2024/01/09 07:33:18;;;;;;;7.15;4.90;;;;;;;-5.80;100.00;103363.00;10412160;28;20048;-70
2024/01/09 07:38:23;;;;;;;4.13;3.78;;;;;;;-5.77;100.00;103386.69;10417371;28;20132;-70
2024/01/09 07:43:24;;;;;;;7.22;5.85;;;;;;;-5.79;100.00;103406.94;10428607;28;20026;-70
2024/01/09 07:48:24;;;;;;;8.23;6.65;;;;;;;-5.86;100.00;103401.78;10410594;28;20115;-70
2024/01/09 07:53:25;;;;;;;5.30;4.07;;;;;;;-5.86;100.00;103399.13;10413240;28;20025;-70
2024/01/09 07:58:25;;;;;;;6.30;5.63;;;;;;;-5.89;100.00;103417.66;10427768;28;20061;-70
2024/01/09 08:03:25;;;;;;;6.07;5.57;;;;;;;-5.86;100.00;103409.69;10430023;28;20459;-70
2024/01/09 08:08:26;;;;;;;4.40;4.00;;;;;;;-5.59;100.00;103419.72;10410939;28;20324;-71
2024/01/09 08:13:26;;;;;;;13.93;6.20;;;;;;;-5.42;100.00;103421.13;10410914;28;20049;-71
2024/01/09 08:18:27;;;;;;;6.57;5.20;;;;;;;-5.38;100.00;103406.94;10412224;28;20065;-70
2024/01/09 08:23:27;;;;;;;5.18;4.45;;;;;;;-4.96;100.00;103435.97;10410808;28;20432;-71
2024/01/09 08:28:27;;;;;;;6.00;5.57;;;;;;;-4.29;100.00;103425.53;10412411;28;20037;-70
2024/01/09 08:33:28;;;;;;;4.60;4.20;;;;;;;-3.97;100.00;103419.38;10433548;28;20050;-70
2024/01/09 08:38:29;;;;;;;4.70;3.45;;;;;;;-3.67;100.00;103434.47;10419881;28;20036;-69
2024/01/09 08:43:29;;;;;;;6.10;4.90;;;;;;;-3.50;100.00;103421.63;10420669;28;20037;-69
2024/01/09 08:48:30;;;;;;;10.48;4.80;;;;;;;-3.32;100.00;103420.22;10418777;28;20037;-68
2024/01/09 08:53:30;;;;;;;4.20;3.90;;;;;;;-2.95;100.00;103435.88;10418531;28;20029;-68
2024/01/09 08:58:31;;;;;;;3.65;3.35;;;;;;;-2.91;100.00;103420.72;10420457;28;20029;-67
2024/01/09 09:03:31;;;;;;;8.75;4.78;;;;;;;-2.75;100.00;103429.06;10419301;28;20158;-68
2024/01/09 09:08:32;;;;;;;5.57;5.07;;;;;;;-2.63;99.40;103442.81;10426458;28;20048;-68
2024/01/09 09:13:32;;;;;;;4.53;4.13;;;;;;;-2.45;95.31;103424.56;10419455;28;20420;-67
2024/01/09 09:18:32;;;;;;;4.75;3.70;;;;;;;-2.39;94.17;103419.94;10416453;28;20488;-67
2024/01/09 09:23:33;;;;;;;6.80;5.00;;;;;;;-2.31;91.73;103413.47;10415954;28;20087;-67
2024/01/09 09:28:33;;;;;;;4.60;2.88;;;;;;;-2.18;89.82;103407.69;10418665;28;20076;-67
2024/01/09 09:33:34;;;;;;;4.78;4.38;;;;;;;-1.87;87.89;103410.13;10417649;28;20057;-67
2024/01/09 09:38:34;;;;;;;5.60;4.32;;;;;;;-1.76;84.40;103408.88;10416678;28;20037;-66
2024/01/09 09:43:35;;;;;;;11.95;4.32;;;;;;;-1.69;80.15;103413.94;10415692;28;20049;-67
2024/01/09 09:48:36;;;;;;;3.67;3.40;;;;;;;-1.55;79.74;103423.19;10420304;28;20036;-66
2024/01/09 09:53:36;;;;;;;3.80;3.50;;;;;;;-2.39;79.36;103403.16;10432066;28;20121;-66
2024/01/09 09:58:37;;;;;;;8.02;5.20;;;;;;;-3.44;89.75;103410.00;10418407;28;20033;-66
2024/01/09 10:03:39;;;;;;;6.18;4.07;;;;;;;-3.02;90.10;103423.72;10418105;28;20042;-66
2024/01/09 10:08:39;;;;;;;4.90;3.53;;;;;;;-2.51;86.46;103417.69;10415752;28;20077;-66
2024/01/09 10:13:39;;;;;;;5.32;4.25;;;;;;;-1.74;78.72;103422.97;10415825;28;20094;-67
2024/01/09 10:18:40;;;;;;;4.72;4.28;;;;;;;-1.68;76.01;103407.69;10431624;28;20052;-66
2024/01/09 10:23:40;;;;;;;8.35;3.80;;;;;;;-1.27;72.96;103391.97;10416171;28;20334;-66
2024/01/09 10:28:41;;;;;;;5.90;4.07;;;;;;;-1.23;69.50;103398.03;10414936;28;20041;-67
2024/01/09 10:33:41;;;;;;;4.18;3.78;;;;;;;-0.92;67.96;103404.81;10414710;28;20405;-68
2024/01/09 10:38:44;;;;;;;3.67;3.38;;;;;;;-0.94;67.33;103383.59;10415856;28;20527;-67
2024/01/09 10:43:44;;;;;;;6.88;4.00;;;;;;;-0.74;65.76;103380.97;10413335;28;20091;-67
2024/01/09 10:48:44;;;;;;;4.05;3.40;;;;;;;-0.66;65.23;103391.31;10415011;28;20079;-67
2024/01/09 10:53:45;;;;;;;8.85;4.43;;;;;;;-0.74;64.71;103367.66;10415045;28;20061;-68
2024/01/09 10:58:46;;;;;;;4.85;3.40;;;;;;;-0.40;64.20;103355.63;10415625;28;20129;-67
2024/01/09 11:03:47;;;;;;;3.45;3.15;;;;;;;-0.27;62.34;103348.81;10415571;28;20491;-67
2024/01/09 11:08:50;;;;;;;14.90;3.08;;;;;;;-1.66;63.15;103347.41;10416788;28;20033;-67
2024/01/09 11:13:51;;;;;;;3.22;2.58;;;;;;;-2.51;66.87;103339.88;10414205;28;20087;-66
2024/01/09 11:18:52;;;;;;;2.78;2.58;;;;;;;-2.71;68.63;103354.69;10435310;28;20076;-67
2024/01/09 11:23:55;;;;;;;5.32;3.25;;;;;;;-2.79;69.25;103330.19;10434034;28;20037;-67
2024/01/09 11:28:57;;;;;;;4.22;3.95;;;;;;;-2.71;68.00;103333.47;10416539;28;20171;-67
2024/01/09 11:34:01;;;;;;;4.10;3.80;;;;;;;-2.66;67.24;103336.81;10413162;28;20041;-66
2024/01/09 11:39:01;;;;;;;3.53;3.15;;;;;;;-2.61;67.48;103313.66;10412780;28;20084;-67
2024/01/09 11:44:02;;;;;;;12.52;4.03;;;;;;;-2.43;66.12;103321.88;10411116;28;20036;-67
2024/01/09 11:49:03;;;;;;;3.65;3.35;;;;;;;-2.38;65.71;103293.41;10411915;28;20030;-66
2024/01/09 11:54:07;;;;;;;3.58;3.30;;;;;;;-2.21;64.77;103285.69;10427906;28;20380;-66
2024/01/09 11:59:07;;;;;;;5.07;3.95;;;;;;;-2.24;63.26;103288.47;10412835;28;20365;-66
2024/01/09 12:04:08;;;;;;;3.95;3.05;;;;;;;-2.05;61.86;103271.88;10414313;28;20037;-66
2024/01/09 12:09:11;;;;;;;5.35;3.20;;;;;;;-1.79;62.26;103276.19;10421018;28;20044;-67
2024/01/09 12:14:12;;;;;;;5.38;3.72;;;;;;;-0.41;58.47;103276.69;10435805;28;20044;-66
2024/01/09 12:19:14;;;;;;;2.67;2.50;;;;;;;0.18;57.71;103270.44;10426541;28;20037;-67
2024/01/09 12:24:14;;;;;;;3.67;3.38;;;;;;;0.51;55.18;103272.47;10426762;28;20057;-66
2024/01/09 12:29:14;;;;;;;3.58;3.17;;;;;;;0.66;55.28;103262.84;10423182;28;20057;-67
2024/01/09 12:34:15;;;;;;;4.20;3.72;;;;;;;0.58;51.74;103255.22;10423715;28;20417;-67
2024/01/09 12:39:16;;;;;;;3.53;3.22;;;;;;;0.52;53.90;103241.34;10420971;28;20034;-66
2024/01/09 12:44:17;;;;;;;3.55;3.17;;;;;;;0.62;54.11;103240.81;10418846;28;20048;-67
2024/01/09 12:49:17;;;;;;;3.33;3.00;;;;;;;0.54;52.16;103244.78;10416890;28;20596;-66
2024/01/09 12:54:17;;;;;;;3.42;3.22;;;;;;;0.64;53.50;103214.09;10434639;28;20033;-67
2024/01/09 12:59:22;;;;;;;3.63;3.40;;;;;;;0.52;53.16;103225.34;10419143;28;20061;-66
2024/01/09 13:04:23;;;;;;;3.17;2.80;;;;;;;0.26;55.10;103218.63;10417120;28;20083;-67
2024/01/09 13:09:23;;;;;;;3.25;3.05;;;;;;;0.10;56.74;103223.81;10418538;28;20078;-67
2024/01/09 13:14:24;;;;;;;2.78;2.58;;;;;;;-0.02;56.91;103219.91;10432903;28;20439;-67
2024/01/09 13:19:25;;;;;;;3.35;3.15;;;;;;;-0.26;58.01;103212.09;10431734;28;20373;-66
2024/01/09 13:24:25;;;;;;;4.45;4.07;;;;;;;-0.36;59.93;103216.13;10433187;28;20084;-67
2024/01/09 13:29:27;;;;;;;3.67;3.38;;;;;;;-0.32;64.96;103215.06;10417918;28;20095;-67
2024/01/09 13:34:27;;;;;;;3.42;3.13;;;;;;;-0.64;62.51;103207.63;10418632;28;20323;-67
2024/01/09 13:39:28;;;;;;;3.20;2.72;;;;;;;-0.63;62.91;103191.63;10417751;28;20033;-67
2024/01/09 13:44:28;;;;;;;2.97;2.70;;;;;;;-0.65;61.27;103200.59;10417523;28;20037;-67
2024/01/09 13:49:29;;;;;;;3.35;3.05;;;;;;;-0.67;61.97;103178.50;10418167;28;20030;-67
2024/01/09 13:54:29;;;;;;;4.13;3.50;;;;;;;-1.04;61.34;103191.63;10417180;28;20083;-67
2024/01/09 13:59:30;;;;;;;2.72;2.53;;;;;;;-1.01;62.31;103180.88;10432119;28;20069;-67
2024/01/09 14:04:30;;;;;;;4.22;3.92;;;;;;;-1.07;60.70;103174.94;10416464;28;20033;-67
2024/01/09 14:09:30;;;;;;;4.20;3.25;;;;;;;-0.99;61.25;103197.63;10416126;28;20049;-67
2024/01/09 14:14:31;;;;;;;2.75;2.53;;;;;;;-0.93;61.50;103177.84;10415269;28;20025;-67
2024/01/09 14:19:31;;;;;;;3.20;2.92;;;;;;;-1.16;60.60;103181.50;10418328;28;20088;-67
2024/01/09 14:24:32;;;;;;;4.43;3.13;;;;;;;-1.23;60.65;103180.06;10415508;28;20033;-66
2024/01/09 14:29:32;;;;;;;4.97;3.45;;;;;;;-1.28;60.59;103176.72;10415330;28;20377;-66
2024/01/09 14:34:32;;;;;;;4.03;3.35;;;;;;;-1.24;61.35;103176.53;10429642;28;20072;-66
2024/01/09 14:39:33;;;;;;;4.07;3.78;;;;;;;-1.23;61.21;103167.63;10415527;28;20068;-66
2024/01/09 14:44:34;;;;;;;5.18;2.53;;;;;;;-1.23;61.65;103180.06;10415612;28;20033;-66
2024/01/09 14:49:34;;;;;;;4.03;3.58;;;;;;;-1.16;60.44;103186.81;10415508;28;20037;-67
2024/01/09 14:54:35;;;;;;;3.78;3.47;;;;;;;-1.27;60.82;103192.59;10414105;28;20128;-67
2024/01/09 14:59:35;;;;;;;3.17;2.97;;;;;;;-1.40;60.35;103183.41;10413656;28;20087;-67
2024/01/09 15:04:37;;;;;;;8.85;3.40;;;;;;;-1.49;59.70;103178.47;10412904;28;20466;-66
2024/01/09 15:09:37;;;;;;;2.80;2.60;;;;;;;-1.51;61.80;103180.34;10414199;28;20026;-69
2024/01/09 15:14:38;;;;;;;3.88;3.03;;;;;;;-1.68;61.10;103186.34;10414204;28;20310;-67
2024/01/09 15:19:40;;;;;;;7.40;3.05;;;;;;;-1.76;61.61;103186.63;10414167;28;20109;-66
2024/01/09 15:24:40;;;;;;;3.70;2.85;;;;;;;-1.84;62.20;103174.59;10412700;28;20037;-67
2024/01/09 15:29:41;;;;;;;4.18;2.40;;;;;;;-1.88;62.64;103184.47;10413053;28;20044;-67
2024/01/09 15:34:41;;;;;;;6.80;4.22;;;;;;;-2.01;63.12;103177.91;10414600;28;20077;-67
2024/01/09 15:39:43;;;;;;;4.72;3.45;;;;;;;-2.10;64.03;103179.16;10413016;28;20037;-67
2024/01/09 15:44:43;;;;;;;4.13;3.70;;;;;;;-2.27;64.57;103177.13;10414038;28;20491;-66
2024/01/09 15:49:43;;;;;;;3.22;2.90;;;;;;;-2.34;65.86;103170.31;10418278;28;20087;-66
2024/01/09 15:54:44;;;;;;;2.65;2.45;;;;;;;-2.45;65.93;103177.84;10416919;28;20391;-67
2024/01/09 15:59:44;;;;;;;8.55;2.88;;;;;;;-2.53;67.23;103186.06;10412749;28;20038;-66
2024/01/09 16:04:45;;;;;;;3.45;3.15;;;;;;;-2.62;68.12;103187.28;10413285;28;20103;-66
2024/01/09 16:09:45;;;;;;;3.25;2.95;;;;;;;-2.73;68.38;103185.94;10412187;28;20029;-66
2024/01/09 16:14:46;;;;;;;6.53;3.70;;;;;;;-2.82;68.75;103189.75;10412233;28;20037;-66
2024/01/09 16:19:46;;;;;;;5.85;3.53;;;;;;;-2.83;68.55;103194.19;10412192;28;20030;-66
2024/01/09 16:24:47;;;;;;;4.32;3.92;;;;;;;-2.82;69.04;103203.03;10427199;28;20029;-66
2024/01/09 16:29:47;;;;;;;5.28;4.05;;;;;;;-2.89;69.09;103196.22;10411522;28;20053;-67
2024/01/09 16:34:47;;;;;;;3.40;3.03;;;;;;;-2.93;69.81;103206.06;10414450;28;20481;-66
2024/01/09 16:39:48;;;;;;;3.17;2.97;;;;;;;-2.97;70.50;103199.09;10411997;28;20057;-66
2024/01/09 16:44:48;;;;;;;3.00;2.72;;;;;;;-2.95;69.86;103204.38;10411164;28;20107;-66
2024/01/09 16:49:49;;;;;;;3.47;3.17;;;;;;;-3.04;70.23;103197.59;10410958;28;20048;-66
2024/01/09 16:54:50;;;;;;;3.25;3.03;;;;;;;-2.97;70.17;103192.94;10416200;28;20021;-66
2024/01/09 16:59:50;;;;;;;3.70;3.28;;;;;;;-3.05;70.29;103193.22;10418176;28;20037;-66
2024/01/09 17:04:51;;;;;;;14.82;3.22;;;;;;;-3.09;70.94;103200.41;10418888;28;20025;-66
2024/01/09 17:09:51;;;;;;;4.97;3.03;;;;;;;-3.09;71.25;103203.06;10418759;28;20468;-66
2024/01/09 17:14:51;;;;;;;4.28;3.90;;;;;;;-3.13;72.31;103201.41;10417057;28;20025;-67
2024/01/09 17:19:52;;;;;;;4.88;3.50;;;;;;;-3.14;73.01;103196.19;10417396;28;20052;-67
2024/01/09 17:24:52;;;;;;;3.63;2.97;;;;;;;-3.17;73.50;103183.03;10417667;28;20132;-67
2024/01/09 17:29:53;;;;;;;4.47;3.22;;;;;;;-3.22;75.49;103184.97;10418103;28;20036;-67
2024/01/09 17:34:53;;;;;;;5.75;3.47;;;;;;;-3.21;75.88;103181.41;10416049;28;20396;-67
2024/01/09 17:39:54;;;;;;;4.43;3.45;;;;;;;-3.22;75.33;103199.09;10417451;28;20034;-66
2024/01/09 17:44:54;;;;;;;4.07;3.35;;;;;;;-3.19;76.47;103203.41;10417613;28;20030;-67
2024/01/09 17:49:54;;;;;;;3.50;3.20;;;;;;;-3.36;77.32;103212.78;10414342;28;20053;-67
2024/01/09 17:54:55;;;;;;;3.33;2.70;;;;;;;-3.29;78.88;103197.56;10416224;28;20018;-66
2024/01/09 17:59:56;;;;;;;4.97;4.35;;;;;;;-3.44;78.75;103192.78;10423152;28;20029;-67
2024/01/09 18:04:56;;;;;;;7.90;4.68;;;;;;;-3.40;78.78;103183.81;10418183;28;20030;-67
2024/01/09 18:09:56;;;;;;;3.45;3.15;;;;;;;-3.35;78.52;103189.81;10432012;28;20072;-67
2024/01/09 18:14:57;;;;;;;6.25;2.88;;;;;;;-3.38;78.32;103181.97;10419723;28;20064;-67
2024/01/09 18:19:58;;;;;;;4.03;3.70;;;;;;;-3.39;79.70;103190.84;10418170;28;20075;-67
2024/01/09 18:24:59;;;;;;;2.45;2.35;;;;;;;-3.40;78.41;103197.94;10414705;28;20049;-67
2024/01/09 18:30:00;;;;;;;8.48;3.67;;;;;;;-3.41;77.84;103198.84;10414589;28;20445;-67
2024/01/09 18:35:00;;;;;;;4.43;3.25;;;;;;;-3.45;78.15;103222.81;10415923;28;20077;-66
2024/01/09 18:40:03;;;;;;;4.25;3.78;;;;;;;-3.48;79.00;103207.03;10430774;28;20142;-67
2024/01/09 18:45:04;;;;;;;8.38;3.78;;;;;;;-3.48;78.92;103207.88;10414577;28;20064;-67
2024/01/09 18:50:08;;;;;;;5.55;5.05;;;;;;;-3.56;79.45;103216.09;10413262;28;20044;-66
2024/01/09 18:55:08;;;;;;;4.47;3.30;;;;;;;-3.54;79.00;103224.00;10414264;28;20033;-66
2024/01/09 19:00:10;;;;;;;3.22;3.03;;;;;;;-3.55;78.66;103211.66;10412670;28;20477;-66
2024/01/09 19:05:10;;;;;;;3.65;3.03;;;;;;;-3.58;79.96;103211.75;10413834;28;20064;-66
2024/01/09 19:10:11;;;;;;;3.53;2.92;;;;;;;-3.61;79.56;103212.72;10413584;28;20040;-66
2024/01/09 19:15:12;;;;;;;4.93;2.97;;;;;;;-3.59;79.16;103207.38;10412557;28;20037;-66
2024/01/09 19:20:14;;;;;;;3.20;2.97;;;;;;;-3.60;78.65;103203.88;10414286;28;20091;-66
2024/01/09 19:25:14;;;;;;;8.82;3.92;;;;;;;-3.60;77.86;103198.59;10412773;28;20087;-66
2024/01/09 19:30:15;;;;;;;3.40;3.10;;;;;;;-3.60;77.03;103187.13;10415056;28;20033;-66
2024/01/09 19:35:15;;;;;;;5.63;3.35;;;;;;;-3.57;76.15;103179.09;10414233;28;20057;-67
2024/01/09 19:40:16;;;;;;;4.80;3.10;;;;;;;-3.60;76.24;103174.75;10414275;28;20449;-66
2024/01/09 19:45:16;;;;;;;4.07;3.80;;;;;;;-3.63;75.83;103190.72;10413207;28;20457;-67
2024/01/09 19:50:16;;;;;;;3.13;2.92;;;;;;;-3.57;74.46;103177.28;10413028;28;20034;-67
2024/01/09 19:55:17;;;;;;;3.10;2.80;;;;;;;-3.55;73.73;103183.38;10412754;28;20449;-69
2024/01/09 20:00:20;;;;;;;4.07;3.72;;;;;;;-3.59;73.34;103179.13;10411212;28;20116;-69
2024/01/09 20:05:21;;;;;;;3.42;3.08;;;;;;;-3.62;74.09;103188.94;10427996;28;20385;-73
2024/01/09 20:10:21;;;;;;;3.38;3.13;;;;;;;-3.63;73.63;103177.50;10412136;28;20033;-67
2024/01/09 20:15:21;;;;;;;3.22;3.03;;;;;;;-3.59;73.40;103180.91;10412370;28;20049;-67
2024/01/09 20:20:22;;;;;;;4.35;3.75;;;;;;;-3.60;72.46;103174.75;10413497;28;20152;-69
2024/01/09 20:25:22;;;;;;;6.13;2.55;;;;;;;-3.63;71.29;103164.25;10427386;28;20033;-66
2024/01/09 20:30:22;;;;;;;3.05;2.58;;;;;;;-3.61;71.86;103180.06;10422949;28;20025;-68
2024/01/09 20:35:24;;;;;;;2.70;2.58;;;;;;;-3.67;70.17;103173.22;10419155;28;20049;-67
2024/01/09 20:40:25;;;;;;;3.47;2.65;;;;;;;-3.60;69.53;103173.88;10420395;28;20307;-66
2024/01/09 20:45:25;;;;;;;9.82;3.00;;;;;;;-3.58;69.13;103177.34;10419430;28;20037;-66
2024/01/09 20:50:25;;;;;;;2.67;2.17;;;;;;;-3.62;68.92;103173.91;10416606;28;20424;-67
2024/01/09 20:55:26;;;;;;;3.63;2.58;;;;;;;-3.63;69.60;103171.34;10423175;28;20141;-67
2024/01/09 21:00:26;;;;;;;2.40;2.30;;;;;;;-3.65;69.67;103174.00;10422926;28;20036;-66
2024/01/09 21:05:27;;;;;;;3.40;3.20;;;;;;;-3.70;68.87;103175.06;10401818;28;20052;-66
2024/01/09 21:10:27;;;;;;;3.00;2.53;;;;;;;-3.70;68.98;103183.91;10420551;28;20106;-66
2024/01/09 21:15:27;;;;;;;2.45;2.35;;;;;;;-3.69;68.74;103187.41;10420679;28;20037;-66
2024/01/09 21:20:28;;;;;;;3.10;2.88;;;;;;;-3.75;68.35;103183.19;10420210;28;20037;-69
2024/01/09 21:25:28;;;;;;;3.28;2.97;;;;;;;-3.74;69.27;103179.59;10418614;28;20033;-67
2024/01/09 21:30:29;;;;;;;3.22;2.92;;;;;;;-3.91;71.02;103155.47;10420339;28;20049;-66
2024/01/09 21:35:29;;;;;;;6.78;2.85;;;;;;;-3.82;72.00;103174.56;10420191;28;20041;-67
2024/01/09 21:40:30;;;;;;;3.72;3.42;;;;;;;-3.91;73.33;103168.69;10421265;28;20101;-67
2024/01/09 21:45:30;;;;;;;5.25;2.97;;;;;;;-3.97;74.19;103172.41;10421210;28;20436;-67
2024/01/09 21:50:30;;;;;;;6.68;2.90;;;;;;;-3.90;75.34;103173.06;10406642;28;20049;-68
2024/01/09 21:55:31;;;;;;;3.25;3.05;;;;;;;-3.98;77.30;103175.97;10423460;28;20087;-66
2024/01/09 22:00:31;;;;;;;2.95;2.58;;;;;;;-4.02;78.51;103184.88;10422810;28;20036;-66
2024/01/09 22:05:31;;;;;;;5.10;3.72;;;;;;;-4.03;78.64;103173.44;10424109;28;20040;-67
2024/01/09 22:10:32;;;;;;;3.38;2.75;;;;;;;-4.08;80.25;103185.09;10421151;28;20034;-66
2024/01/09 22:15:32;;;;;;;4.38;2.53;;;;;;;-4.07;81.30;103186.81;10415340;28;20183;-67
2024/01/09 22:20:33;;;;;;;3.53;3.30;;;;;;;-4.16;81.09;103187.97;10415221;28;20116;-67
2024/01/09 22:25:33;;;;;;;2.70;2.47;;;;;;;-4.19;82.50;103182.75;10422983;28;20083;-67
2024/01/09 22:30:34;;;;;;;3.53;3.15;;;;;;;-4.18;82.81;103181.84;10427908;28;20033;-66
2024/01/09 22:35:35;;;;;;;7.50;2.85;;;;;;;-4.21;83.81;103168.72;10420648;28;20033;-67
2024/01/09 22:40:35;;;;;;;3.33;3.03;;;;;;;-4.25;85.08;103177.66;10416503;28;20036;-66
2024/01/09 22:45:36;;;;;;;3.65;3.35;;;;;;;-4.24;86.47;103174.13;10434934;28;20026;-67
2024/01/09 22:50:36;;;;;;;3.08;2.78;;;;;;;-4.35;89.66;103168.25;10419080;28;20338;-67
2024/01/09 22:55:36;;;;;;;5.85;4.03;;;;;;;-4.40;91.28;103172.81;10413910;28;20029;-67